Time;durP1;ratioP1;P1;durP2;ratioP2;P2;SDS_P1;SDS_P2;PMS_P1;PMS_P2;Temp;Humidity;BMP_temperature;BMP_pressure;BME280_temperature;BME280_humidity;BME280_pressure;Samples;Min_cycle;Max_cycle;Signal;HPM_P1;HPM_P2
2021/12/09 00:01:32;;;;;;;108.80;62.40;;;;;;;3.75;70.76;94262.78;5092233;28;20263;-73
2021/12/09 00:04:03;;;;;;;110.23;64.37;;;;;;;3.73;70.71;94255.31;5092449;28;20533;-72
2021/12/09 00:06:31;;;;;;;110.10;62.17;;;;;;;3.71;70.67;94252.13;5092034;28;20198;-74
2021/12/09 00:09:03;;;;;;;115.83;66.53;;;;;;;3.73;70.45;94247.75;5092258;28;20189;-73
2021/12/09 00:11:30;;;;;;;113.30;64.67;;;;;;;3.72;70.35;94243.59;5092595;28;20235;-72
2021/12/09 00:13:59;;;;;;;123.13;66.27;;;;;;;3.71;70.31;94239.47;5091904;28;20645;-73
2021/12/09 00:16:25;;;;;;;116.50;66.13;;;;;;;3.68;70.26;94244.72;5092067;28;20213;-72
2021/12/09 00:18:52;;;;;;;114.53;65.70;;;;;;;3.72;70.26;94247.84;5091805;28;20189;-72
2021/12/09 00:21:19;;;;;;;104.47;61.47;;;;;;;3.71;70.07;94239.47;5090082;28;20233;-73
2021/12/09 00:23:46;;;;;;;108.83;63.97;;;;;;;3.70;70.11;94234.50;5090857;28;20236;-73
2021/12/09 00:26:13;;;;;;;110.93;61.50;;;;;;;3.72;70.00;94238.53;5092244;28;20186;-74
2021/12/09 00:28:39;;;;;;;101.63;58.87;;;;;;;3.71;70.03;94228.53;5092323;28;20197;-73
2021/12/09 00:31:08;;;;;;;111.40;61.77;;;;;;;3.74;70.18;94234.19;5092040;28;20194;-72
2021/12/09 00:33:40;;;;;;;114.20;62.30;;;;;;;3.72;70.11;94223.38;5091586;28;20196;-74
2021/12/09 00:36:08;;;;;;;103.17;59.03;;;;;;;3.77;70.10;94218.78;5091808;28;20200;-74
2021/12/09 00:38:37;;;;;;;101.57;58.47;;;;;;;3.75;70.12;94207.16;5090154;28;20221;-74
2021/12/09 00:41:06;;;;;;;115.33;59.73;;;;;;;3.80;70.33;94210.19;5091686;28;20228;-73
2021/12/09 00:43:33;;;;;;;85.03;49.10;;;;;;;3.82;70.64;94207.56;5091110;28;20182;-74
2021/12/09 00:46:00;;;;;;;83.80;49.33;;;;;;;3.81;70.93;94206.75;5090805;28;20194;-74
2021/12/09 00:48:28;;;;;;;82.23;48.80;;;;;;;3.82;70.92;94210.88;5090257;28;20197;-73
2021/12/09 00:50:56;;;;;;;81.27;45.43;;;;;;;3.86;70.77;94208.94;5091332;28;20193;-73
2021/12/09 00:53:24;;;;;;;78.23;44.83;;;;;;;3.33;70.77;94132.66;5091161;28;20188;-73
2021/12/09 00:55:50;;;;;;;70.20;40.90;;;;;;;3.89;70.87;94208.75;5090958;28;20272;-73
2021/12/09 00:58:18;;;;;;;67.93;41.10;;;;;;;3.94;70.72;94204.97;5090961;28;20783;-72
2021/12/09 01:00:45;;;;;;;63.93;38.17;;;;;;;3.98;70.65;94201.28;5090988;28;20220;-74
2021/12/09 01:03:12;;;;;;;63.63;37.03;;;;;;;4.03;70.55;94211.06;5090985;28;20208;-74
2021/12/09 01:05:41;;;;;;;55.50;34.60;;;;;;;4.06;70.52;94210.88;5090663;28;20194;-74
2021/12/09 01:08:08;;;;;;;59.33;34.07;;;;;;;4.09;70.45;94210.63;5091122;28;20194;-73
2021/12/09 01:10:35;;;;;;;51.47;32.03;;;;;;;4.12;70.53;94225.59;5090432;28;20201;-73
2021/12/09 01:13:01;;;;;;;49.50;31.83;;;;;;;4.15;70.55;94222.84;5089452;28;20189;-74
2021/12/09 01:15:28;;;;;;;60.03;36.57;;;;;;;4.19;70.37;94226.78;5090784;28;20802;-74
2021/12/09 01:17:57;;;;;;;59.93;37.20;;;;;;;4.22;70.23;94218.13;5091012;28;20228;-73
2021/12/09 01:20:25;;;;;;;66.77;39.97;;;;;;;4.23;69.98;94212.97;5090655;28;20200;-73
2021/12/09 01:22:54;;;;;;;68.73;41.30;;;;;;;4.01;69.76;94177.47;5090726;28;20189;-73
2021/12/09 01:25:22;;;;;;;77.40;44.60;;;;;;;4.23;69.53;94223.09;5090259;28;20256;-74
2021/12/09 01:27:54;;;;;;;79.60;46.83;;;;;;;4.18;69.43;94209.97;5090718;28;20189;-73
2021/12/09 01:30:25;;;;;;;77.80;45.57;;;;;;;4.23;69.62;94215.50;5090731;28;20660;-73
2021/12/09 01:32:55;;;;;;;85.13;47.77;;;;;;;4.26;69.41;94227.94;5090351;28;20194;-74
2021/12/09 01:35:24;;;;;;;82.07;47.43;;;;;;;4.19;69.31;94206.53;5090549;28;20283;-72
2021/12/09 01:37:54;;;;;;;87.07;49.93;;;;;;;4.28;69.18;94226.09;5090465;28;20193;-72
2021/12/09 01:40:23;;;;;;;78.90;48.33;;;;;;;4.27;69.03;94223.66;5090161;28;20239;-72
2021/12/09 01:42:50;;;;;;;88.87;50.77;;;;;;;4.31;69.07;94227.59;5090515;28;20549;-73
2021/12/09 01:45:17;;;;;;;89.70;51.23;;;;;;;4.10;68.96;94184.44;5090396;28;20193;-72
2021/12/09 01:47:45;;;;;;;88.47;49.63;;;;;;;4.30;68.93;94195.59;5090080;28;20194;-73
2021/12/09 01:50:14;;;;;;;86.13;48.80;;;;;;;4.34;68.85;94214.72;5090284;28;20194;-73
2021/12/09 01:52:41;;;;;;;82.73;48.67;;;;;;;4.35;68.68;94211.25;5089921;28;20691;-73
2021/12/09 01:55:09;;;;;;;79.00;46.60;;;;;;;4.30;68.67;94197.34;5090199;28;20212;-73
2021/12/09 01:57:38;;;;;;;85.83;48.43;;;;;;;4.28;68.32;94193.19;5090005;28;20190;-72
2021/12/09 02:00:07;;;;;;;75.47;44.03;;;;;;;4.37;68.51;94211.97;5090357;28;20560;-71
2021/12/09 02:02:34;;;;;;;85.60;46.13;;;;;;;4.16;68.43;94173.03;5089807;28;20291;-74
2021/12/09 02:05:00;;;;;;;76.20;43.53;;;;;;;4.39;68.44;94204.25;5090459;28;20201;-74
2021/12/09 02:07:27;;;;;;;74.63;45.73;;;;;;;4.40;68.21;94203.34;5089945;28;20217;-73
2021/12/09 02:09:54;;;;;;;77.00;44.23;;;;;;;4.40;68.03;94203.34;5089934;28;20186;-74
2021/12/09 02:12:21;;;;;;;80.07;44.37;;;;;;;4.40;68.14;94198.28;5089887;28;20193;-73
2021/12/09 02:14:52;;;;;;;73.73;41.77;;;;;;;4.41;68.05;94195.66;5089853;28;20190;-72
2021/12/09 02:17:19;;;;;;;80.40;45.77;;;;;;;4.42;68.05;94202.31;5089923;28;20577;-73
2021/12/09 02:19:46;;;;;;;73.80;42.30;;;;;;;4.44;68.17;94197.13;5089838;28;20193;-75
2021/12/09 02:22:15;;;;;;;81.10;45.07;;;;;;;4.44;68.13;94210.59;5089623;28;20221;-74
2021/12/09 02:24:42;;;;;;;78.67;44.53;;;;;;;4.47;68.12;94212.91;5089911;28;20290;-74
2021/12/09 02:27:10;;;;;;;79.30;45.53;;;;;;;4.48;68.24;94217.03;5089841;28;20668;-72
2021/12/09 02:29:39;;;;;;;79.17;44.80;;;;;;;4.48;68.22;94232.22;5089422;28;20185;-74
2021/12/09 02:32:06;;;;;;;76.23;45.33;;;;;;;4.50;68.22;94227.88;5090014;28;20193;-72
2021/12/09 02:34:33;;;;;;;70.07;44.77;;;;;;;4.51;68.33;94224.41;5089578;28;20686;-73
2021/12/09 02:37:00;;;;;;;81.00;45.43;;;;;;;4.53;68.38;94221.75;5089569;28;20239;-73
2021/12/09 02:39:29;;;;;;;70.77;42.97;;;;;;;4.50;68.16;94215.22;5089441;28;20190;-73
2021/12/09 02:41:56;;;;;;;75.57;43.77;;;;;;;4.55;68.31;94216.59;5089842;28;20225;-73
2021/12/09 02:44:24;;;;;;;73.13;43.03;;;;;;;4.56;68.19;94208.09;5089506;28;20236;-73
2021/12/09 02:46:53;;;;;;;66.80;42.57;;;;;;;4.54;68.09;94200.59;5089685;28;20189;-73
2021/12/09 02:49:22;;;;;;;75.70;42.27;;;;;;;4.55;67.96;94206.47;5089578;28;20644;-71
2021/12/09 02:51:52;;;;;;;70.43;41.87;;;;;;;4.52;67.94;94200.69;5089475;28;20208;-73
2021/12/09 02:54:20;;;;;;;70.90;41.10;;;;;;;4.56;67.91;94198.75;5089503;28;20193;-73
2021/12/09 02:56:51;;;;;;;72.33;41.77;;;;;;;4.49;67.67;94187.47;5091411;28;20675;-71
2021/12/09 02:59:18;;;;;;;73.07;41.13;;;;;;;4.33;67.75;94171.81;5094627;28;20201;-73
2021/12/09 03:01:56;;;;;;;70.47;40.37;;;;;;;4.55;67.54;94204.75;5094577;28;20213;-73
2021/12/09 03:04:24;;;;;;;67.77;40.93;;;;;;;4.55;67.51;94209.00;5093032;28;20623;-72
2021/12/09 03:06:53;;;;;;;63.77;40.23;;;;;;;4.50;67.51;94214.41;5088034;28;20717;-71
2021/12/09 03:09:21;;;;;;;76.30;41.63;;;;;;;4.53;67.39;94219.22;5073043;28;20332;-73
2021/12/09 03:11:55;;;;;;;74.50;39.80;;;;;;;4.54;67.59;94223.41;5073457;28;20179;-73
2021/12/09 03:14:23;;;;;;;68.37;40.10;;;;;;;4.53;67.49;94207.41;5072875;28;20230;-72
2021/12/09 03:16:50;;;;;;;69.90;41.23;;;;;;;4.55;67.92;94203.94;5072795;28;20669;-72
2021/12/09 03:19:17;;;;;;;75.27;41.37;;;;;;;4.55;67.61;94209.00;5072876;28;20187;-72
2021/12/09 03:21:45;;;;;;;69.07;41.47;;;;;;;4.56;67.47;94215.69;5072469;28;20222;-72
2021/12/09 03:24:15;;;;;;;66.33;39.83;;;;;;;4.55;67.46;94214.88;5072265;28;20233;-72
2021/12/09 03:26:46;;;;;;;75.13;43.13;;;;;;;4.53;67.39;94216.69;5072575;28;20217;-72
2021/12/09 03:29:16;;;;;;;73.40;41.10;;;;;;;4.52;67.44;94226.03;5072606;28;20198;-72
2021/12/09 03:31:46;;;;;;;74.53;41.90;;;;;;;4.37;67.37;94198.50;5072655;28;20194;-72
2021/12/09 03:34:15;;;;;;;74.03;42.87;;;;;;;4.52;67.25;94230.28;5072579;28;20182;-72
2021/12/09 03:36:42;;;;;;;74.37;41.10;;;;;;;4.51;67.21;94223.63;5071264;28;20666;-72
2021/12/09 03:39:13;;;;;;;76.47;43.60;;;;;;;4.50;67.26;94220.28;5072700;28;20194;-72
2021/12/09 03:41:41;;;;;;;77.17;43.07;;;;;;;4.51;67.21;94216.03;5072520;28;20230;-72
2021/12/09 03:44:08;;;;;;;77.20;44.40;;;;;;;4.50;67.13;94212.69;5072901;28;20186;-72
2021/12/09 03:46:37;;;;;;;75.50;43.17;;;;;;;4.51;67.25;94214.28;5072076;28;20205;-72
2021/12/09 03:49:04;;;;;;;74.67;43.63;;;;;;;4.51;67.25;94203.34;5072835;28;20201;-72
2021/12/09 03:51:31;;;;;;;77.20;44.40;;;;;;;4.39;67.57;94184.00;5072485;28;20182;-72
2021/12/09 03:53:58;;;;;;;74.10;44.03;;;;;;;4.42;67.25;94191.38;5072179;28;20729;-73
2021/12/09 03:56:25;;;;;;;82.90;45.07;;;;;;;4.53;67.31;94211.63;5072057;28;20661;-71
2021/12/09 03:58:51;;;;;;;72.00;42.97;;;;;;;4.54;67.24;94223.41;5072143;28;20198;-72
2021/12/09 04:01:18;;;;;;;76.23;44.90;;;;;;;4.55;67.32;94234.31;5071695;28;20196;-72
2021/12/09 04:03:46;;;;;;;77.67;42.20;;;;;;;4.56;67.28;94230.88;5072211;28;20194;-72
2021/12/09 04:06:13;;;;;;;73.27;43.50;;;;;;;4.55;67.38;94232.59;5071760;28;20186;-72
2021/12/09 04:08:40;;;;;;;77.87;44.23;;;;;;;4.55;67.47;94219.94;5071757;28;20198;-74
2021/12/09 04:11:10;;;;;;;74.13;44.30;;;;;;;4.56;67.52;94213.94;5071944;28;20182;-72
2021/12/09 04:13:37;;;;;;;72.83;42.60;;;;;;;4.56;67.70;94226.59;5071734;28;20263;-74
2021/12/09 04:16:07;;;;;;;75.17;43.13;;;;;;;4.58;67.47;94234.09;5071835;28;20535;-73
2021/12/09 04:18:34;;;;;;;77.47;43.47;;;;;;;4.58;67.44;94231.56;5071815;28;20240;-73
2021/12/09 04:21:03;;;;;;;73.63;43.77;;;;;;;4.59;67.38;94238.25;5071535;28;20658;-73
2021/12/09 04:23:29;;;;;;;68.63;42.70;;;;;;;4.42;67.27;94209.09;5071434;28;20229;-73
2021/12/09 04:25:56;;;;;;;68.33;42.07;;;;;;;4.59;67.56;94238.25;5071898;28;20289;-74
2021/12/09 04:28:24;;;;;;;76.43;41.97;;;;;;;4.60;67.54;94232.25;5071568;28;20195;-73
2021/12/09 04:30:51;;;;;;;68.17;41.03;;;;;;;4.61;67.53;94223.72;5071797;28;20198;-74
2021/12/09 04:33:18;;;;;;;63.73;40.33;;;;;;;4.62;67.83;94230.41;5071496;28;20578;-74
2021/12/09 04:35:45;;;;;;;66.47;40.43;;;;;;;4.62;67.65;94236.31;5071425;28;20570;-73
2021/12/09 04:38:14;;;;;;;70.63;39.53;;;;;;;4.64;67.61;94242.03;5071242;28;20198;-72
2021/12/09 04:40:40;;;;;;;77.50;42.37;;;;;;;4.65;67.67;94245.38;5071532;28;20353;-72
2021/12/09 04:43:07;;;;;;;73.97;42.40;;;;;;;4.66;67.80;94241.91;5070963;28;20229;-73
2021/12/09 04:45:34;;;;;;;69.23;41.37;;;;;;;4.67;67.90;94241.84;5071273;28;20190;-72
2021/12/09 04:48:04;;;;;;;72.20;41.67;;;;;;;4.49;67.79;94197.59;5070999;28;20251;-72
2021/12/09 04:50:30;;;;;;;70.90;39.33;;;;;;;4.67;67.84;94246.91;5071108;28;20198;-71
2021/12/09 04:52:57;;;;;;;70.67;41.03;;;;;;;4.69;67.66;94246.78;5071191;28;20202;-72
2021/12/09 04:55:26;;;;;;;71.53;41.30;;;;;;;4.67;67.68;94246.09;5070958;28;20582;-73
2021/12/09 04:57:55;;;;;;;67.97;42.40;;;;;;;4.61;67.93;94244.00;5070932;28;20210;-74
2021/12/09 05:00:25;;;;;;;70.33;42.53;;;;;;;4.69;67.65;94251.84;5071518;28;20292;-74
2021/12/09 05:03:03;;;;;;;78.10;42.00;;;;;;;4.68;67.73;94245.97;5071053;28;20823;-74
2021/12/09 05:05:33;;;;;;;74.60;42.30;;;;;;;4.68;67.87;94250.22;5071069;28;20193;-75
2021/12/09 05:08:00;;;;;;;72.00;41.07;;;;;;;4.69;67.81;94244.25;5070608;28;20281;-74
2021/12/09 05:10:34;;;;;;;79.57;43.10;;;;;;;4.70;67.80;94258.50;5070498;28;20249;-73
2021/12/09 05:13:01;;;;;;;68.13;39.63;;;;;;;4.71;68.01;94255.88;5070877;28;20197;-72
2021/12/09 05:15:28;;;;;;;68.43;38.60;;;;;;;4.68;68.22;94252.75;5070995;28;20185;-73
2021/12/09 05:17:54;;;;;;;61.50;35.20;;;;;;;4.72;68.34;94257.47;5070543;28;20194;-73
2021/12/09 05:20:22;;;;;;;52.80;31.50;;;;;;;4.72;68.58;94257.47;5070475;28;20196;-73
2021/12/09 05:22:49;;;;;;;45.27;29.17;;;;;;;4.68;68.81;94253.56;5070276;28;20241;-72
2021/12/09 05:25:16;;;;;;;53.60;32.57;;;;;;;4.70;68.92;94254.25;5069397;28;20230;-73
2021/12/09 05:27:44;;;;;;;50.73;29.70;;;;;;;4.71;69.29;94255.06;5070672;28;20273;-73
2021/12/09 05:30:12;;;;;;;45.03;28.00;;;;;;;4.70;69.40;94266.09;5070136;28;20654;-73
2021/12/09 05:32:39;;;;;;;47.87;27.60;;;;;;;4.68;69.46;94251.03;5070379;28;20254;-73
2021/12/09 05:35:07;;;;;;;48.20;27.83;;;;;;;4.40;69.34;94210.91;5070119;28;20551;-73
2021/12/09 05:37:34;;;;;;;48.77;28.20;;;;;;;4.69;69.61;94245.03;5068018;28;20194;-73
2021/12/09 05:40:00;;;;;;;50.57;27.63;;;;;;;4.69;69.64;94242.50;5067565;28;20190;-72
2021/12/09 05:42:27;;;;;;;45.57;27.97;;;;;;;4.71;69.52;94245.75;5068168;28;20210;-76
2021/12/09 05:44:57;;;;;;;46.87;27.83;;;;;;;4.73;69.69;94253.22;5067825;28;20182;-74
2021/12/09 05:47:24;;;;;;;46.37;27.43;;;;;;;4.72;69.67;94265.09;5067729;28;20810;-74
2021/12/09 05:49:53;;;;;;;47.33;25.60;;;;;;;4.72;69.45;94264.28;5067652;28;20198;-72
2021/12/09 05:52:20;;;;;;;42.97;25.93;;;;;;;4.73;69.71;94263.34;5068094;28;20278;-74
2021/12/09 05:54:48;;;;;;;38.13;26.13;;;;;;;4.70;69.78;94255.97;5067618;28;20289;-73
2021/12/09 05:57:14;;;;;;;40.63;25.50;;;;;;;4.73;69.64;94260.81;5067448;28;20667;-74
2021/12/09 05:59:42;;;;;;;43.30;27.43;;;;;;;4.74;69.72;94259.91;5067604;28;20190;-74
2021/12/09 06:02:12;;;;;;;49.57;27.87;;;;;;;4.73;69.78;94265.88;5067680;28;20213;-74
2021/12/09 06:04:39;;;;;;;44.40;26.70;;;;;;;4.75;69.71;94264.06;5067586;28;20201;-72
2021/12/09 06:07:06;;;;;;;43.90;26.13;;;;;;;4.78;69.82;94269.69;5067291;28;20187;-73
2021/12/09 06:09:34;;;;;;;42.63;26.70;;;;;;;4.72;69.49;94257.47;5067756;28;20197;-72
2021/12/09 06:12:01;;;;;;;44.40;25.77;;;;;;;4.84;69.65;94270.19;5067563;28;20187;-76
2021/12/09 06:14:28;;;;;;;42.77;26.87;;;;;;;4.87;69.64;94273.25;5067850;28;20198;-76
2021/12/09 06:16:55;;;;;;;39.53;25.90;;;;;;;4.90;69.77;94255.31;5067387;28;20676;-73
2021/12/09 06:19:23;;;;;;;44.70;26.47;;;;;;;4.92;69.57;94266.16;5067551;28;20713;-77
2021/12/09 06:21:50;;;;;;;46.27;27.97;;;;;;;4.93;69.58;94266.97;5065636;28;20198;-76
2021/12/09 06:24:18;;;;;;;42.90;27.33;;;;;;;5.01;69.33;94278.13;5067078;28;20230;-76
2021/12/09 06:26:46;;;;;;;43.07;26.70;;;;;;;5.05;69.22;94268.56;5067352;28;20615;-77
2021/12/09 06:29:14;;;;;;;43.53;26.60;;;;;;;5.11;69.10;94274.91;5069648;28;20201;-72
2021/12/09 06:31:43;;;;;;;44.77;26.93;;;;;;;5.16;69.06;94281.22;5068064;28;20646;-75
2021/12/09 06:34:11;;;;;;;48.17;26.17;;;;;;;5.21;68.93;94280.88;5067874;28;20201;-74
2021/12/09 06:36:40;;;;;;;42.70;25.80;;;;;;;5.20;68.86;94266.59;5069460;28;20228;-73
2021/12/09 06:39:07;;;;;;;40.20;25.40;;;;;;;5.34;68.67;94273.97;5072531;28;20271;-76
2021/12/09 06:41:34;;;;;;;43.17;25.53;;;;;;;5.41;68.57;94269.25;5071857;28;20213;-74
2021/12/09 06:44:02;;;;;;;44.90;27.93;;;;;;;5.45;68.33;94270.63;5071117;28;20217;-75
2021/12/09 06:46:29;;;;;;;46.27;28.70;;;;;;;5.51;68.29;94273.50;5071418;28;20819;-74
2021/12/09 06:48:57;;;;;;;46.87;29.07;;;;;;;5.45;68.28;94248.63;5087931;28;20194;-73
2021/12/09 06:51:24;;;;;;;44.53;28.73;;;;;;;5.62;67.87;94264.28;5074244;28;20236;-74
2021/12/09 06:53:52;;;;;;;50.33;31.40;;;;;;;5.61;67.88;94263.44;5081360;28;20200;-74
2021/12/09 06:56:19;;;;;;;51.03;31.87;;;;;;;5.68;67.70;94268.84;5091843;28;20191;-76
2021/12/09 06:58:46;;;;;;;50.83;31.13;;;;;;;5.65;67.56;94258.94;5091031;28;20190;-74
2021/12/09 07:01:13;;;;;;;57.50;32.70;;;;;;;5.69;67.59;94257.78;5091267;28;20251;-73
2021/12/09 07:03:39;;;;;;;53.90;32.83;;;;;;;5.76;67.31;94274.94;5091211;28;20221;-73
2021/12/09 07:06:08;;;;;;;52.57;34.70;;;;;;;5.79;67.30;94266.31;5090744;28;20194;-73
2021/12/09 07:08:38;;;;;;;58.93;35.43;;;;;;;5.82;66.86;94263.50;5090778;28;20209;-72
2021/12/09 07:11:06;;;;;;;62.73;36.73;;;;;;;5.86;67.07;94264.09;5091090;28;20247;-75
2021/12/09 07:13:33;;;;;;;58.63;35.53;;;;;;;5.90;66.77;94260.38;5090466;28;20193;-75
2021/12/09 07:16:00;;;;;;;63.20;36.63;;;;;;;5.94;66.73;94260.06;5090765;28;20196;-74
2021/12/09 07:18:27;;;;;;;59.67;37.50;;;;;;;5.99;66.63;94260.50;5090839;28;20189;-75
2021/12/09 07:20:54;;;;;;;67.10;36.33;;;;;;;6.05;66.48;94266.84;5090635;28;20197;-74
2021/12/09 07:23:21;;;;;;;67.60;38.20;;;;;;;6.12;66.23;94267.13;5087717;28;20226;-74
2021/12/09 07:25:48;;;;;;;62.67;36.77;;;;;;;6.17;66.12;94268.38;5088194;28;20201;-73
2021/12/09 07:28:17;;;;;;;61.30;37.10;;;;;;;6.19;66.05;94266.53;5089344;28;20204;-74
2021/12/09 07:30:44;;;;;;;66.20;38.77;;;;;;;6.18;66.21;94266.66;5086567;28;20221;-74
2021/12/09 07:33:11;;;;;;;57.60;36.40;;;;;;;6.16;66.10;94268.50;5089538;28;20189;-73
2021/12/09 07:35:39;;;;;;;56.57;35.33;;;;;;;6.13;66.12;94259.44;5089220;28;20201;-73
2021/12/09 07:38:06;;;;;;;61.10;35.77;;;;;;;6.10;66.06;94251.25;5086783;28;20217;-74
2021/12/09 07:40:34;;;;;;;59.67;35.97;;;;;;;6.05;65.99;94246.53;5088775;28;20208;-74
2021/12/09 07:43:01;;;;;;;59.40;36.80;;;;;;;6.07;66.02;94259.09;5086389;28;20255;-74
2021/12/09 07:45:30;;;;;;;61.33;36.17;;;;;;;6.06;65.99;94252.41;5088728;28;20653;-75
2021/12/09 07:47:57;;;;;;;60.27;35.60;;;;;;;6.08;65.99;94260.69;5087955;28;20197;-74
2021/12/09 07:50:28;;;;;;;58.87;37.03;;;;;;;6.11;65.89;94250.31;5089325;28;20202;-76
2021/12/09 07:52:56;;;;;;;61.90;37.13;;;;;;;6.09;65.57;94222.53;5088842;28;20980;-73
2021/12/09 07:55:24;;;;;;;58.17;36.27;;;;;;;5.92;65.43;94193.41;5088682;28;20197;-80
2021/12/09 07:57:52;;;;;;;64.37;38.40;;;;;;;6.38;65.29;94247.28;5088884;28;20201;-77
2021/12/09 08:00:22;;;;;;;61.40;36.90;;;;;;;6.60;65.10;94249.69;5088445;28;20714;-76
2021/12/09 08:02:52;;;;;;;59.97;36.33;;;;;;;6.74;65.04;94238.44;5088904;28;20225;-77
2021/12/09 08:05:20;;;;;;;57.57;35.50;;;;;;;6.66;64.72;94215.38;5088925;28;20194;-78
2021/12/09 08:07:47;;;;;;;64.27;36.80;;;;;;;7.01;64.62;94237.91;5088621;28;20208;-77
2021/12/09 08:10:16;;;;;;;57.57;35.80;;;;;;;7.16;64.47;94245.97;5088663;28;20209;-78
2021/12/09 08:12:43;;;;;;;55.90;33.60;;;;;;;7.29;64.48;94247.34;5088786;28;20208;-75
2021/12/09 08:15:12;;;;;;;30.13;18.30;;;;;;;7.63;96.97;94247.06;5088661;28;20189;-77
2021/12/09 08:17:57;;;;;;;33.00;19.80;;;;;;;8.65;100.00;94254.34;5088577;28;20189;-76
2021/12/09 08:20:26;;;;;;;33.60;21.17;;;;;;;9.87;100.00;94250.78;5088635;28;20216;-74
2021/12/09 08:22:53;;;;;;;30.50;19.77;;;;;;;10.90;100.00;94233.28;5088316;28;20696;-77
2021/12/09 08:25:21;;;;;;;29.80;20.30;;;;;;;11.76;95.06;94233.97;5088504;28;20229;-78
2021/12/09 08:27:48;;;;;;;30.40;18.60;;;;;;;12.60;88.64;94249.31;5088470;28;20919;-78
2021/12/09 08:30:19;;;;;;;45.73;27.20;;;;;;;13.31;69.34;94246.03;5087319;28;20221;-76
2021/12/09 08:32:46;;;;;;;50.33;32.83;;;;;;;13.29;68.21;94237.69;5090327;28;20232;-74
2021/12/09 08:35:15;;;;;;;53.03;33.13;;;;;;;13.32;66.63;94234.78;5090847;28;20204;-75
2021/12/09 08:37:45;;;;;;;51.23;33.70;;;;;;;13.17;64.69;94246.66;5090568;28;20207;-76
2021/12/09 08:40:13;;;;;;;54.53;34.83;;;;;;;12.96;63.37;94234.38;5087786;28;20258;-75
2021/12/09 08:42:40;;;;;;;51.37;32.93;;;;;;;12.80;62.60;94258.28;5090642;28;20189;-77
2021/12/09 08:45:10;;;;;;;52.27;33.60;;;;;;;12.66;61.92;94253.81;5091291;28;20201;-79
2021/12/09 08:47:37;;;;;;;51.60;34.57;;;;;;;12.51;61.11;94236.47;5090204;28;20193;-73
2021/12/09 08:50:05;;;;;;;53.70;34.47;;;;;;;12.28;60.64;94226.06;5090696;28;20680;-77
2021/12/09 08:52:32;;;;;;;61.83;36.90;;;;;;;12.11;59.86;94232.13;5088235;28;20213;-75
2021/12/09 08:55:00;;;;;;;57.37;36.83;;;;;;;11.76;59.34;94213.47;5088647;28;20597;-80
2021/12/09 08:57:27;;;;;;;51.30;33.40;;;;;;;11.67;59.08;94239.22;5090355;28;20182;-77
2021/12/09 08:59:54;;;;;;;62.13;37.77;;;;;;;11.45;59.02;94220.91;5090105;28;20229;-77
2021/12/09 09:02:21;;;;;;;56.10;35.73;;;;;;;11.36;58.54;94233.84;5090926;28;20201;-81
2021/12/09 09:04:48;;;;;;;64.03;37.87;;;;;;;11.23;58.28;94200.97;5090484;28;20261;-79
2021/12/09 09:07:15;;;;;;;61.83;37.67;;;;;;;11.21;58.08;94213.91;5090266;28;20205;-74
2021/12/09 09:09:42;;;;;;;57.77;37.20;;;;;;;10.66;57.93;94139.28;5090900;28;20204;-80
2021/12/09 09:12:17;;;;;;;59.17;38.13;;;;;;;11.03;57.66;94214.00;5088309;28;20182;-80
2021/12/09 09:14:48;;;;;;;59.67;36.07;;;;;;;10.90;57.38;94200.03;5087026;28;20676;-74
2021/12/09 09:17:16;;;;;;;59.33;38.07;;;;;;;10.83;57.69;94173.44;5090369;28;20639;-78
2021/12/09 09:19:43;;;;;;;63.57;37.97;;;;;;;10.87;57.50;94190.06;5088568;28;20194;-78
2021/12/09 09:22:10;;;;;;;61.60;38.00;;;;;;;10.60;57.07;94160.38;5088830;28;20192;-75
2021/12/09 09:24:37;;;;;;;57.43;37.57;;;;;;;10.74;57.18;94175.13;5089235;28;20240;-78
2021/12/09 09:27:04;;;;;;;59.67;37.53;;;;;;;10.64;57.08;94164.22;5092628;28;20201;-77
2021/12/09 09:29:34;;;;;;;64.30;37.77;;;;;;;10.71;56.90;94190.81;5089747;28;20273;-75
2021/12/09 09:32:01;;;;;;;60.93;37.00;;;;;;;10.45;56.77;94144.78;5089425;28;20200;-78
2021/12/09 09:34:28;;;;;;;58.90;38.00;;;;;;;10.73;56.71;94186.34;5089533;28;20186;-75
2021/12/09 09:36:55;;;;;;;56.00;37.53;;;;;;;10.75;56.46;94189.53;5089644;28;20243;-76
2021/12/09 09:39:28;;;;;;;62.63;38.00;;;;;;;10.77;56.34;94167.19;5089561;28;20303;-77
2021/12/09 09:42:00;;;;;;;65.03;38.23;;;;;;;10.80;55.97;94190.69;5089222;28;20200;-81
2021/12/09 09:44:33;;;;;;;63.03;37.70;;;;;;;10.87;55.99;94157.63;5089023;28;20232;-76
2021/12/09 09:47:06;;;;;;;60.30;37.63;;;;;;;10.89;55.82;94165.97;5089207;28;20192;-78
2021/12/09 09:49:35;;;;;;;66.50;38.90;;;;;;;10.89;55.65;94127.59;5091355;28;20193;-76
2021/12/09 09:52:02;;;;;;;63.83;38.10;;;;;;;11.13;55.67;94172.13;5088766;28;20190;-75
2021/12/09 09:54:30;;;;;;;64.20;38.00;;;;;;;10.98;55.47;94110.53;5084398;28;20628;-76
2021/12/09 09:56:57;;;;;;;57.77;37.40;;;;;;;11.20;55.29;94137.31;5085224;28;20224;-79
2021/12/09 09:59:26;;;;;;;55.27;35.33;;;;;;;11.29;55.15;94133.81;5085776;28;20208;-76
2021/12/09 10:01:55;;;;;;;62.13;37.17;;;;;;;11.42;54.70;94146.97;5085992;28;20194;-74
2021/12/09 10:04:33;;;;;;;53.03;34.33;;;;;;;11.48;54.58;94125.84;5086556;28;20229;-75
2021/12/09 10:07:01;;;;;;;58.17;37.53;;;;;;;11.54;54.43;94117.56;5086410;28;20583;-79
2021/12/09 10:09:29;;;;;;;56.10;35.93;;;;;;;11.54;54.21;94138.03;5086378;28;20676;-79
2021/12/09 10:11:56;;;;;;;56.40;37.57;;;;;;;11.52;54.24;94131.47;5086456;28;20928;-73
2021/12/09 10:14:25;;;;;;;60.53;37.50;;;;;;;11.55;54.23;94111.47;5086789;28;20227;-73
2021/12/09 10:17:04;;;;;;;58.20;37.43;;;;;;;11.62;53.96;94126.22;5086817;28;20236;-74
2021/12/09 10:19:34;;;;;;;58.27;36.40;;;;;;;11.65;54.10;94131.00;5086686;28;20185;-73
2021/12/09 10:22:10;;;;;;;60.50;38.20;;;;;;;11.66;53.99;94133.41;5086400;28;20196;-75
2021/12/09 10:24:38;;;;;;;57.30;36.40;;;;;;;11.63;53.80;94097.88;5086031;28;20228;-74
2021/12/09 10:27:07;;;;;;;57.10;36.83;;;;;;;11.68;53.80;94121.25;5086581;28;20237;-78
2021/12/09 10:29:38;;;;;;;55.90;33.93;;;;;;;11.62;53.87;94077.56;5087066;28;20631;-79
2021/12/09 10:32:10;;;;;;;58.93;35.20;;;;;;;11.67;54.02;94135.00;5087053;28;20201;-75
2021/12/09 10:34:40;;;;;;;56.50;36.97;;;;;;;11.60;53.77;94112.75;5086967;28;20193;-79
2021/12/09 10:37:13;;;;;;;52.87;35.07;;;;;;;11.68;53.95;94112.75;5088416;28;20206;-77
2021/12/09 10:39:45;;;;;;;55.73;37.37;;;;;;;11.67;53.86;94113.72;5088158;28;20851;-76
2021/12/09 10:42:16;;;;;;;55.47;36.97;;;;;;;11.68;53.78;94087.94;5088949;28;20197;-79
2021/12/09 10:44:50;;;;;;;66.30;41.00;;;;;;;11.65;53.78;94088.25;5088605;28;20656;-76
2021/12/09 10:47:24;;;;;;;64.60;38.70;;;;;;;11.71;53.73;94102.22;5089198;28;20240;-79
2021/12/09 10:50:06;;;;;;;68.37;40.33;;;;;;;11.74;53.74;94092.44;5088831;28;20200;-79
2021/12/09 10:52:39;;;;;;;59.43;41.17;;;;;;;11.70;53.92;94100.59;5089024;28;20197;-77
2021/12/09 10:55:13;;;;;;;70.07;42.10;;;;;;;11.80;53.70;94094.38;5086556;28;20197;-75
2021/12/09 10:57:41;;;;;;;66.73;43.40;;;;;;;11.85;53.47;94081.09;5088209;28;20194;-77
2021/12/09 11:00:27;;;;;;;67.77;41.73;;;;;;;11.87;53.46;94084.28;5088555;28;20190;-74
2021/12/09 11:03:06;;;;;;;68.80;42.03;;;;;;;11.87;53.54;94057.88;5088677;28;20190;-77
2021/12/09 11:05:36;;;;;;;69.27;43.13;;;;;;;11.97;53.39;94072.13;5087024;28;20665;-76
2021/12/09 11:08:22;;;;;;;69.07;42.43;;;;;;;12.00;53.22;94051.31;5086857;28;20327;-81
2021/12/09 11:10:50;;;;;;;72.63;43.57;;;;;;;12.12;53.28;94074.84;5087491;28;20193;-79
2021/12/09 11:13:21;;;;;;;67.13;44.53;;;;;;;11.96;52.91;94042.34;5088266;28;20559;-75
2021/12/09 11:15:53;;;;;;;72.33;44.63;;;;;;;12.18;53.11;94065.72;5088793;28;20689;-77
2021/12/09 11:18:32;;;;;;;79.67;48.43;;;;;;;12.18;53.03;94076.75;5086317;28;20182;-78
2021/12/09 11:21:02;;;;;;;80.53;48.63;;;;;;;12.19;53.21;94067.31;5088732;28;20193;-76
2021/12/09 11:23:32;;;;;;;79.20;47.80;;;;;;;12.18;53.12;94061.38;5091679;28;20559;-77
2021/12/09 11:26:22;;;;;;;79.40;49.17;;;;;;;12.22;53.04;94067.78;5092100;28;20202;-75
2021/12/09 11:28:55;;;;;;;76.93;48.83;;;;;;;12.19;52.96;94064.75;5092447;28;20558;-80